sensor_id;sensor_type;location;lat;lon;timestamp;pressure;altitude;pressure_sealevel;temperature;humidity
39773;BME280;25451;51.960;6.250;2022-08-01T00:00:10;101469.03;;;22.54;67.95
39773;BME280;25451;51.960;6.250;2022-08-01T00:02:39;101462.63;;;22.48;68.05
39773;BME280;25451;51.960;6.250;2022-08-01T00:05:05;101466.59;;;22.47;68.00
39773;BME280;25451;51.960;6.250;2022-08-01T00:07:32;101476.41;;;22.50;67.98
39773;BME280;25451;51.960;6.250;2022-08-01T00:09:57;101482.31;;;22.48;68.10
39773;BME280;25451;51.960;6.250;2022-08-01T00:12:22;101476.16;;;22.46;68.22
39773;BME280;25451;51.960;6.250;2022-08-01T00:14:48;101476.47;;;22.45;68.10
39773;BME280;25451;51.960;6.250;2022-08-01T00:17:13;101480.47;;;22.44;68.27
39773;BME280;25451;51.960;6.250;2022-08-01T00:19:38;101470.66;;;22.41;68.12
39773;BME280;25451;51.960;6.250;2022-08-01T00:22:04;101470.44;;;22.38;68.27
39773;BME280;25451;51.960;6.250;2022-08-01T00:24:29;101470.19;;;22.34;68.25
39773;BME280;25451;51.960;6.250;2022-08-01T00:26:55;101477.50;;;22.35;68.41
39773;BME280;25451;51.960;6.250;2022-08-01T00:29:20;101486.25;;;22.34;67.95
39773;BME280;25451;51.960;6.250;2022-08-01T00:31:45;101489.34;;;22.32;68.20
39773;BME280;25451;51.960;6.250;2022-08-01T00:34:10;101482.69;;;22.28;68.45
39773;BME280;25451;51.960;6.250;2022-08-01T00:36:36;101482.69;;;22.28;68.32
39773;BME280;25451;51.960;6.250;2022-08-01T00:39:01;101471.53;;;22.23;68.38
39773;BME280;25451;51.960;6.250;2022-08-01T00:41:26;101481.63;;;22.24;68.34
39773;BME280;25451;51.960;6.250;2022-08-01T00:43:52;101485.88;;;22.21;68.17
39773;BME280;25451;51.960;6.250;2022-08-01T00:46:17;101481.72;;;22.19;68.24
39773;BME280;25451;51.960;6.250;2022-08-01T00:48:42;101486.81;;;22.17;68.18
39773;BME280;25451;51.960;6.250;2022-08-01T00:51:08;101485.66;;;22.18;68.13
39773;BME280;25451;51.960;6.250;2022-08-01T00:53:34;101484.81;;;22.17;68.23
39773;BME280;25451;51.960;6.250;2022-08-01T00:55:59;101483.47;;;22.15;68.29
39773;BME280;25451;51.960;6.250;2022-08-01T00:58:25;101473.44;;;22.09;68.13
39773;BME280;25451;51.960;6.250;2022-08-01T01:00:50;101464.25;;;22.03;68.17
39773;BME280;25451;51.960;6.250;2022-08-01T01:03:16;101477.59;;;22.11;68.03
39773;BME280;25451;51.960;6.250;2022-08-01T01:05:55;101486.34;;;22.10;68.04
39773;BME280;25451;51.960;6.250;2022-08-01T01:08:28;101476.53;;;22.07;68.08
39773;BME280;25451;51.960;6.250;2022-08-01T01:11:04;101466.75;;;22.05;68.13
39773;BME280;25451;51.960;6.250;2022-08-01T01:13:38;101474.66;;;22.03;68.01
39773;BME280;25451;51.960;6.250;2022-08-01T01:16:15;101468.53;;;22.01;68.08
39773;BME280;25451;51.960;6.250;2022-08-01T01:18:46;101473.91;;;21.97;68.18
39773;BME280;25451;51.960;6.250;2022-08-01T01:26:45;101481.56;;;21.92;68.05
39773;BME280;25451;51.960;6.250;2022-08-01T01:29:21;101470.66;;;21.90;68.00
39773;BME280;25451;51.960;6.250;2022-08-01T01:32:13;101478.56;;;21.88;68.16
39773;BME280;25451;51.960;6.250;2022-08-01T01:34:42;101466.28;;;21.79;68.06
39773;BME280;25451;51.960;6.250;2022-08-01T01:37:12;101474.16;;;21.82;68.19
39773;BME280;25451;51.960;6.250;2022-08-01T01:39:40;101469.72;;;21.76;68.13
39773;BME280;25451;51.960;6.250;2022-08-01T01:42:07;101482.25;;;21.84;68.14
39773;BME280;25451;51.960;6.250;2022-08-01T01:44:33;101483.69;;;21.81;68.14
39773;BME280;25451;51.960;6.250;2022-08-01T01:47:00;101472.78;;;21.75;68.14
39773;BME280;25451;51.960;6.250;2022-08-01T01:49:27;101484.56;;;21.77;68.22
39773;BME280;25451;51.960;6.250;2022-08-01T01:51:54;101489.91;;;21.78;68.20
39773;BME280;25451;51.960;6.250;2022-08-01T01:54:22;101487.69;;;21.75;68.25
39773;BME280;25451;51.960;6.250;2022-08-01T01:56:50;101495.28;;;21.75;68.35
39773;BME280;25451;51.960;6.250;2022-08-01T01:59:25;101473.19;;;21.68;68.37
39773;BME280;25451;51.960;6.250;2022-08-01T02:01:55;101490.88;;;21.69;68.35
39773;BME280;25451;51.960;6.250;2022-08-01T02:04:22;101486.09;;;21.69;68.28
39773;BME280;25451;51.960;6.250;2022-08-01T02:06:50;101485.03;;;21.65;68.47
39773;BME280;25451;51.960;6.250;2022-08-01T02:09:18;101487.25;;;21.68;68.32
39773;BME280;25451;51.960;6.250;2022-08-01T02:11:46;101489.81;;;21.65;68.25
39773;BME280;25451;51.960;6.250;2022-08-01T02:14:13;101483.38;;;21.64;68.42
39773;BME280;25451;51.960;6.250;2022-08-01T02:16:41;101483.66;;;21.63;68.39
39773;BME280;25451;51.960;6.250;2022-08-01T02:19:08;101488.47;;;21.62;68.46
39773;BME280;25451;51.960;6.250;2022-08-01T02:21:47;101471.66;;;21.57;68.43
39773;BME280;25451;51.960;6.250;2022-08-01T02:27:06;101486.25;;;21.59;68.51
39773;BME280;25451;51.960;6.250;2022-08-01T02:29:46;101486.56;;;21.58;68.56
39773;BME280;25451;51.960;6.250;2022-08-01T02:32:20;101486.84;;;21.56;68.47
39773;BME280;25451;51.960;6.250;2022-08-01T02:34:49;101482.69;;;21.54;68.38
39773;BME280;25451;51.960;6.250;2022-08-01T02:37:17;101489.94;;;21.55;68.56
39773;BME280;25451;51.960;6.250;2022-08-01T02:39:45;101494.75;;;21.54;68.50
39773;BME280;25451;51.960;6.250;2022-08-01T02:42:12;101484.94;;;21.52;68.50
39773;BME280;25451;51.960;6.250;2022-08-01T02:44:41;101479.34;;;21.52;68.46
39773;BME280;25451;51.960;6.250;2022-08-01T02:47:08;101483.88;;;21.48;68.46
39773;BME280;25451;51.960;6.250;2022-08-01T02:49:38;101474.06;;;21.45;68.50
39773;BME280;25451;51.960;6.250;2022-08-01T02:52:08;101474.06;;;21.45;68.53
39773;BME280;25451;51.960;6.250;2022-08-01T02:54:36;101485.00;;;21.46;68.61
39773;BME280;25451;51.960;6.250;2022-08-01T02:57:03;101479.69;;;21.45;68.69
39773;BME280;25451;51.960;6.250;2022-08-01T02:59:29;101482.03;;;21.38;68.58
39773;BME280;25451;51.960;6.250;2022-08-01T03:01:56;101494.03;;;21.43;68.71
39773;BME280;25451;51.960;6.250;2022-08-01T03:04:24;101493.50;;;21.41;68.78
39773;BME280;25451;51.960;6.250;2022-08-01T03:06:51;101484.00;;;21.37;68.79
39773;BME280;25451;51.960;6.250;2022-08-01T03:09:18;101489.84;;;21.41;68.80
39773;BME280;25451;51.960;6.250;2022-08-01T03:11:45;101491.81;;;21.40;68.88
39773;BME280;25451;51.960;6.250;2022-08-01T03:14:12;101487.34;;;21.39;68.80
39773;BME280;25451;51.960;6.250;2022-08-01T03:16:40;101498.59;;;21.39;68.85
39773;BME280;25451;51.960;6.250;2022-08-01T03:19:08;101497.75;;;21.39;68.93
39773;BME280;25451;51.960;6.250;2022-08-01T03:21:35;101495.25;;;21.37;69.05
39773;BME280;25451;51.960;6.250;2022-08-01T03:24:03;101498.88;;;21.38;69.03
39773;BME280;25451;51.960;6.250;2022-08-01T03:26:32;101487.63;;;21.38;69.05
39773;BME280;25451;51.960;6.250;2022-08-01T03:29:02;101490.75;;;21.36;69.10
39773;BME280;25451;51.960;6.250;2022-08-01T03:31:32;101494.72;;;21.35;69.09
39773;BME280;25451;51.960;6.250;2022-08-01T03:33:58;101493.88;;;21.35;69.06
39773;BME280;25451;51.960;6.250;2022-08-01T03:36:25;101487.72;;;21.33;69.11
39773;BME280;25451;51.960;6.250;2022-08-01T03:38:57;101494.19;;;21.33;69.24
39773;BME280;25451;51.960;6.250;2022-08-01T03:41:26;101492.50;;;21.32;69.14
39773;BME280;25451;51.960;6.250;2022-08-01T03:43:58;101492.50;;;21.32;69.12
39773;BME280;25451;51.960;6.250;2022-08-01T03:46:30;101486.88;;;21.32;69.16
39773;BME280;25451;51.960;6.250;2022-08-01T03:49:01;101492.56;;;21.27;69.23
39773;BME280;25451;51.960;6.250;2022-08-01T03:51:29;101506.00;;;21.30;69.09
39773;BME280;25451;51.960;6.250;2022-08-01T03:53:56;101496.44;;;21.31;69.18
39773;BME280;25451;51.960;6.250;2022-08-01T03:56:25;101483.63;;;21.25;69.20
39773;BME280;25451;51.960;6.250;2022-08-01T03:58:50;101493.91;;;21.30;69.16
39773;BME280;25451;51.960;6.250;2022-08-01T04:01:17;101481.06;;;21.24;69.17
39773;BME280;25451;51.960;6.250;2022-08-01T04:03:43;101500.38;;;21.30;69.16
39773;BME280;25451;51.960;6.250;2022-08-01T04:06:09;101491.41;;;21.28;69.21
39773;BME280;25451;51.960;6.250;2022-08-01T04:08:36;101497.03;;;21.28;69.18
39773;BME280;25451;51.960;6.250;2022-08-01T04:11:02;101499.84;;;21.28;69.17
39773;BME280;25451;51.960;6.250;2022-08-01T04:13:27;101487.75;;;21.28;69.15
39773;BME280;25451;51.960;6.250;2022-08-01T04:15:52;101486.78;;;21.19;69.08
39773;BME280;25451;51.960;6.250;2022-08-01T04:18:18;101500.72;;;21.24;69.20
39773;BME280;25451;51.960;6.250;2022-08-01T04:20:48;101517.00;;;21.27;69.18
39773;BME280;25451;51.960;6.250;2022-08-01T04:23:16;101512.50;;;21.26;69.21
39773;BME280;25451;51.960;6.250;2022-08-01T04:25:44;101504.38;;;21.24;69.13
39773;BME280;25451;51.960;6.250;2022-08-01T04:28:10;101507.19;;;21.24;69.17
39773;BME280;25451;51.960;6.250;2022-08-01T04:30:42;101505.59;;;21.18;69.15
39773;BME280;25451;51.960;6.250;2022-08-01T04:33:10;101503.94;;;21.17;69.13
39773;BME280;25451;51.960;6.250;2022-08-01T04:35:38;101515.38;;;21.21;69.29
39773;BME280;25451;51.960;6.250;2022-08-01T04:38:07;101518.19;;;21.21;69.33
39773;BME280;25451;51.960;6.250;2022-08-01T04:40:35;101515.38;;;21.21;69.29
39773;BME280;25451;51.960;6.250;2022-08-01T04:43:02;101516.81;;;21.18;69.31
39773;BME280;25451;51.960;6.250;2022-08-01T04:45:28;101522.97;;;21.20;69.36
39773;BME280;25451;51.960;6.250;2022-08-01T04:47:54;101527.22;;;21.18;69.32
39773;BME280;25451;51.960;6.250;2022-08-01T04:50:19;101530.56;;;21.20;69.39
39773;BME280;25451;51.960;6.250;2022-08-01T04:52:47;101537.31;;;21.19;69.42
39773;BME280;25451;51.960;6.250;2022-08-01T04:55:12;101528.66;;;21.15;69.53
39773;BME280;25451;51.960;6.250;2022-08-01T04:57:41;101525.56;;;21.17;69.44
39773;BME280;25451;51.960;6.250;2022-08-01T05:00:08;101539.28;;;21.18;69.56
39773;BME280;25451;51.960;6.250;2022-08-01T05:02:34;101537.91;;;21.16;69.43
39773;BME280;25451;51.960;6.250;2022-08-01T05:04:59;101543.47;;;21.21;69.55
39773;BME280;25451;51.960;6.250;2022-08-01T05:07:24;101538.97;;;21.20;69.48
39773;BME280;25451;51.960;6.250;2022-08-01T05:09:50;101531.47;;;21.15;69.54
39773;BME280;25451;51.960;6.250;2022-08-01T05:12:15;101531.16;;;21.17;69.53
39773;BME280;25451;51.960;6.250;2022-08-01T05:14:41;101536.69;;;21.22;69.59
39773;BME280;25451;51.960;6.250;2022-08-01T05:17:07;101540.06;;;21.24;69.48
39773;BME280;25451;51.960;6.250;2022-08-01T05:19:34;101546.75;;;21.28;69.50
39773;BME280;25451;51.960;6.250;2022-08-01T05:22:01;101542.50;;;21.30;69.70
39773;BME280;25451;51.960;6.250;2022-08-01T05:24:27;101548.66;;;21.32;69.63
39773;BME280;25451;51.960;6.250;2022-08-01T05:26:56;101516.78;;;21.23;69.50
39773;BME280;25451;51.960;6.250;2022-08-01T05:29:22;101547.47;;;21.38;69.41
39773;BME280;25451;51.960;6.250;2022-08-01T05:31:48;101550.75;;;21.45;69.51
39773;BME280;25451;51.960;6.250;2022-08-01T05:34:13;101541.72;;;21.48;69.48
39773;BME280;25451;51.960;6.250;2022-08-01T05:36:39;101546.75;;;21.52;69.43
39773;BME280;25451;51.960;6.250;2022-08-01T05:39:05;101550.94;;;21.54;69.56
39773;BME280;25451;51.960;6.250;2022-08-01T05:41:30;101553.13;;;21.57;69.62
39773;BME280;25451;51.960;6.250;2022-08-01T05:43:55;101548.59;;;21.61;69.58
39773;BME280;25451;51.960;6.250;2022-08-01T05:46:21;101553.91;;;21.63;69.56
39773;BME280;25451;51.960;6.250;2022-08-01T05:48:46;101548.81;;;21.65;69.53
39773;BME280;25451;51.960;6.250;2022-08-01T05:51:11;101559.38;;;21.73;69.42
39773;BME280;25451;51.960;6.250;2022-08-01T05:53:37;101559.09;;;21.74;69.47
39773;BME280;25451;51.960;6.250;2022-08-01T05:56:02;101559.03;;;21.79;69.66
39773;BME280;25451;51.960;6.250;2022-08-01T05:58:28;101555.91;;;21.81;69.57
39773;BME280;25451;51.960;6.250;2022-08-01T06:00:53;101558.16;;;21.84;69.59
39773;BME280;25451;51.960;6.250;2022-08-01T06:03:19;101569.09;;;21.85;69.51
39773;BME280;25451;51.960;6.250;2022-08-01T06:05:44;101560.06;;;21.88;69.43
39773;BME280;25451;51.960;6.250;2022-08-01T06:08:09;101563.69;;;21.89;69.47
39773;BME280;25451;51.960;6.250;2022-08-01T06:10:35;101567.34;;;21.89;69.39
39773;BME280;25451;51.960;6.250;2022-08-01T06:13:00;101576.31;;;21.91;69.50
39773;BME280;25451;51.960;6.250;2022-08-01T06:15:28;101574.34;;;21.92;69.48
39773;BME280;25451;51.960;6.250;2022-08-01T06:17:54;101553.41;;;21.79;69.77
39773;BME280;25451;51.960;6.250;2022-08-01T06:20:20;101572.97;;;21.89;69.77
39773;BME280;25451;51.960;6.250;2022-08-01T06:22:45;101580.88;;;21.87;69.96
39773;BME280;25451;51.960;6.250;2022-08-01T06:25:10;101573.34;;;21.83;69.99
39773;BME280;25451;51.960;6.250;2022-08-01T06:27:36;101579.84;;;21.78;70.09
39773;BME280;25451;51.960;6.250;2022-08-01T06:30:02;101583.56;;;21.74;70.47
39773;BME280;25451;51.960;6.250;2022-08-01T06:32:27;101584.69;;;21.73;70.34
39773;BME280;25451;51.960;6.250;2022-08-01T06:34:54;101569.31;;;21.65;70.36
39773;BME280;25451;51.960;6.250;2022-08-01T06:37:20;101570.75;;;21.63;70.51
39773;BME280;25451;51.960;6.250;2022-08-01T06:39:46;101579.97;;;21.68;70.43
39773;BME280;25451;51.960;6.250;2022-08-01T06:42:11;101601.63;;;21.68;70.58
39773;BME280;25451;51.960;6.250;2022-08-01T06:44:37;101598.81;;;21.68;70.58
39773;BME280;25451;51.960;6.250;2022-08-01T06:47:02;101597.97;;;21.67;70.54
39773;BME280;25451;51.960;6.250;2022-08-01T06:49:27;101590.97;;;21.65;70.46
39773;BME280;25451;51.960;6.250;2022-08-01T06:51:53;101593.78;;;21.65;70.64
39773;BME280;25451;51.960;6.250;2022-08-01T06:54:18;101587.63;;;21.63;70.47
39773;BME280;25451;51.960;6.250;2022-08-01T06:56:43;101600.53;;;21.64;70.57
39773;BME280;25451;51.960;6.250;2022-08-01T06:59:08;101594.94;;;21.64;70.74
39773;BME280;25451;51.960;6.250;2022-08-01T07:01:34;101590.97;;;21.65;70.70
39773;BME280;25451;51.960;6.250;2022-08-01T07:03:59;101595.16;;;21.67;70.71
39773;BME280;25451;51.960;6.250;2022-08-01T07:06:25;101593.72;;;21.70;70.66
39773;BME280;25451;51.960;6.250;2022-08-01T07:08:52;101597.06;;;21.72;70.64
39773;BME280;25451;51.960;6.250;2022-08-01T07:11:18;101579.72;;;21.65;70.72
39773;BME280;25451;51.960;6.250;2022-08-01T07:13:44;101595.66;;;21.74;70.76
39773;BME280;25451;51.960;6.250;2022-08-01T07:16:11;101597.84;;;21.77;70.75
39773;BME280;25451;51.960;6.250;2022-08-01T07:18:36;101592.44;;;21.81;70.66
39773;BME280;25451;51.960;6.250;2022-08-01T07:21:01;101599.16;;;21.85;70.55
39773;BME280;25451;51.960;6.250;2022-08-01T07:23:27;101608.13;;;21.87;70.41
39773;BME280;25451;51.960;6.250;2022-08-01T07:25:52;101603.34;;;21.87;70.49
39773;BME280;25451;51.960;6.250;2022-08-01T07:28:17;101601.19;;;21.79;70.33
39773;BME280;25451;51.960;6.250;2022-08-01T07:30:43;101622.44;;;21.90;70.40
39773;BME280;25451;51.960;6.250;2022-08-01T07:33:09;101623.28;;;21.91;70.45
39773;BME280;25451;51.960;6.250;2022-08-01T07:35:35;101623.28;;;21.91;70.42
39773;BME280;25451;51.960;6.250;2022-08-01T07:38:03;101630.56;;;21.92;70.29
39773;BME280;25451;51.960;6.250;2022-08-01T07:40:29;101637.34;;;21.91;70.29
39773;BME280;25451;51.960;6.250;2022-08-01T07:42:54;101617.19;;;21.84;70.16
39773;BME280;25451;51.960;6.250;2022-08-01T07:45:19;101638.25;;;21.86;70.09
39773;BME280;25451;51.960;6.250;2022-08-01T07:47:46;101636.59;;;21.80;70.16
39773;BME280;25451;51.960;6.250;2022-08-01T07:50:11;101633.06;;;21.70;70.13
39773;BME280;25451;51.960;6.250;2022-08-01T07:52:38;101635.00;;;21.74;70.19
39773;BME280;25451;51.960;6.250;2022-08-01T07:55:04;101638.06;;;21.73;70.04
39773;BME280;25451;51.960;6.250;2022-08-01T07:57:29;101640.88;;;21.73;69.91
39773;BME280;25451;51.960;6.250;2022-08-01T07:59:55;101653.28;;;21.72;69.92
39773;BME280;25451;51.960;6.250;2022-08-01T08:02:20;101637.00;;;21.69;69.84
39773;BME280;25451;51.960;6.250;2022-08-01T08:04:45;101647.66;;;21.72;69.90
39773;BME280;25451;51.960;6.250;2022-08-01T08:07:11;101652.44;;;21.71;69.66
39773;BME280;25451;51.960;6.250;2022-08-01T08:09:36;101644.00;;;21.71;69.55
39773;BME280;25451;51.960;6.250;2022-08-01T08:12:01;101654.94;;;21.73;69.36
39773;BME280;25451;51.960;6.250;2022-08-01T08:14:27;101653.19;;;21.77;69.52
39773;BME280;25451;51.960;6.250;2022-08-01T08:16:52;101659.91;;;21.81;69.45
39773;BME280;25451;51.960;6.250;2022-08-01T08:19:17;101656.53;;;21.84;69.46
39773;BME280;25451;51.960;6.250;2022-08-01T08:21:43;101655.91;;;21.87;69.36
39773;BME280;25451;51.960;6.250;2022-08-01T08:24:09;101658.69;;;21.92;69.32
39773;BME280;25451;51.960;6.250;2022-08-01T08:26:50;101670.09;;;22.00;69.05
39773;BME280;25451;51.960;6.250;2022-08-01T08:29:16;101664.53;;;21.95;68.89
39773;BME280;25451;51.960;6.250;2022-08-01T08:31:41;101672.69;;;21.97;68.85
39773;BME280;25451;51.960;6.250;2022-08-01T08:34:07;101660.13;;;21.89;68.82
39773;BME280;25451;51.960;6.250;2022-08-01T08:36:33;101668.81;;;21.93;68.89
39773;BME280;25451;51.960;6.250;2022-08-01T08:38:59;101671.97;;;21.86;68.91
39773;BME280;25451;51.960;6.250;2022-08-01T08:41:31;101675.09;;;21.80;68.68
39773;BME280;25451;51.960;6.250;2022-08-01T08:43:57;101675.75;;;21.72;68.67
39773;BME280;25451;51.960;6.250;2022-08-01T08:46:26;101674.59;;;21.73;68.91
39773;BME280;25451;51.960;6.250;2022-08-01T08:48:53;101673.00;;;21.67;68.78
39773;BME280;25451;51.960;6.250;2022-08-01T08:51:18;101679.47;;;21.67;68.68
39773;BME280;25451;51.960;6.250;2022-08-01T08:53:46;101669.66;;;21.65;68.82
39773;BME280;25451;51.960;6.250;2022-08-01T08:56:13;101675.22;;;21.70;68.70
39773;BME280;25451;51.960;6.250;2022-08-01T08:58:41;101676.59;;;21.72;68.58
39773;BME280;25451;51.960;6.250;2022-08-01T09:01:09;101675.75;;;21.72;68.40
39773;BME280;25451;51.960;6.250;2022-08-01T09:03:35;101685.31;;;21.71;68.69
39773;BME280;25451;51.960;6.250;2022-08-01T09:06:01;101686.47;;;21.70;68.54
39773;BME280;25451;51.960;6.250;2022-08-01T09:08:26;101690.94;;;21.71;68.44
39773;BME280;25451;51.960;6.250;2022-08-01T09:10:51;101690.94;;;21.71;68.44
39773;BME280;25451;51.960;6.250;2022-08-01T09:13:17;101693.75;;;21.71;68.41
39773;BME280;25451;51.960;6.250;2022-08-01T09:15:46;101692.09;;;21.70;68.30
39773;BME280;25451;51.960;6.250;2022-08-01T09:18:29;101696.56;;;21.71;68.07
39773;BME280;25451;51.960;6.250;2022-08-01T09:23:50;101696.28;;;21.72;67.72
39773;BME280;25451;51.960;6.250;2022-08-01T09:26:18;101700.75;;;21.73;67.41
39773;BME280;25451;51.960;6.250;2022-08-01T09:28:47;101701.59;;;21.74;67.22
39773;BME280;25451;51.960;6.250;2022-08-01T09:31:15;101685.94;;;21.68;67.16
39773;BME280;25451;51.960;6.250;2022-08-01T09:33:58;101699.63;;;21.74;67.11
39773;BME280;25451;51.960;6.250;2022-08-01T09:36:43;101704.06;;;21.80;67.07
39773;BME280;25451;51.960;6.250;2022-08-01T09:39:14;101708.53;;;21.86;66.97
39773;BME280;25451;51.960;6.250;2022-08-01T09:41:40;101711.50;;;21.95;66.77
39773;BME280;25451;51.960;6.250;2022-08-01T09:44:06;101705.22;;;22.03;66.62
39773;BME280;25451;51.960;6.250;2022-08-01T09:46:31;101708.72;;;22.13;66.45
39773;BME280;25451;51.960;6.250;2022-08-01T09:49:02;101707.25;;;22.21;66.25
39773;BME280;25451;51.960;6.250;2022-08-01T09:51:36;101715.00;;;22.29;65.96
39773;BME280;25451;51.960;6.250;2022-08-01T09:54:03;101695.31;;;22.29;65.92
39773;BME280;25451;51.960;6.250;2022-08-01T09:56:39;101707.03;;;22.36;65.45
39773;BME280;25451;51.960;6.250;2022-08-01T09:59:05;101723.53;;;22.43;65.52
39773;BME280;25451;51.960;6.250;2022-08-01T10:01:47;101723.22;;;22.44;65.38
39773;BME280;25451;51.960;6.250;2022-08-01T10:04:19;101716.53;;;22.40;65.14
39773;BME280;25451;51.960;6.250;2022-08-01T10:06:47;101723.53;;;22.43;64.90
39773;BME280;25451;51.960;6.250;2022-08-01T10:09:15;101727.78;;;22.40;64.93
39773;BME280;25451;51.960;6.250;2022-08-01T10:11:47;101726.66;;;22.41;64.99
39773;BME280;25451;51.960;6.250;2022-08-01T10:14:13;101731.69;;;22.44;65.09
39773;BME280;25451;51.960;6.250;2022-08-01T10:16:39;101730.78;;;22.49;64.89
39773;BME280;25451;51.960;6.250;2022-08-01T10:19:07;101709.25;;;22.39;64.60
39773;BME280;25451;51.960;6.250;2022-08-01T10:21:33;101732.91;;;22.57;64.73
39773;BME280;25451;51.960;6.250;2022-08-01T10:24:02;101735.97;;;22.60;64.48
39773;BME280;25451;51.960;6.250;2022-08-01T10:26:32;101741.34;;;22.62;64.46
39773;BME280;25451;51.960;6.250;2022-08-01T10:28:58;101739.06;;;22.64;64.38
39773;BME280;25451;51.960;6.250;2022-08-01T10:31:23;101739.28;;;22.67;64.43
39773;BME280;25451;51.960;6.250;2022-08-01T10:33:50;101753.88;;;22.69;64.30
39773;BME280;25451;51.960;6.250;2022-08-01T10:36:19;101735.38;;;22.63;64.42
39773;BME280;25451;51.960;6.250;2022-08-01T10:38:45;101749.09;;;22.70;64.40
39773;BME280;25451;51.960;6.250;2022-08-01T10:41:12;101750.97;;;22.74;64.56
39773;BME280;25451;51.960;6.250;2022-08-01T10:43:40;101752.06;;;22.78;64.30
39773;BME280;25451;51.960;6.250;2022-08-01T10:46:05;101750.59;;;22.81;64.47
39773;BME280;25451;51.960;6.250;2022-08-01T10:48:51;101754.25;;;22.81;64.29
39773;BME280;25451;51.960;6.250;2022-08-01T10:51:20;101745.91;;;22.76;64.42
39773;BME280;25451;51.960;6.250;2022-08-01T10:53:55;101744.53;;;22.74;64.42
39773;BME280;25451;51.960;6.250;2022-08-01T10:56:23;101747.63;;;22.72;64.46
39773;BME280;25451;51.960;6.250;2022-08-01T10:58:49;101737.22;;;22.73;64.41
39773;BME280;25451;51.960;6.250;2022-08-01T11:03:43;101736.38;;;22.72;64.23
39773;BME280;25451;51.960;6.250;2022-08-01T11:06:16;101737.47;;;22.76;64.07
39773;BME280;25451;51.960;6.250;2022-08-01T11:08:43;101748.94;;;22.80;63.77
39773;BME280;25451;51.960;6.250;2022-08-01T11:11:15;101744.38;;;22.84;63.84
39773;BME280;25451;51.960;6.250;2022-08-01T11:16:30;101745.97;;;22.90;63.42
39773;BME280;25451;51.960;6.250;2022-08-01T11:18:56;101737.75;;;22.93;63.25
39773;BME280;25451;51.960;6.250;2022-08-01T11:21:21;101734.41;;;22.91;63.49
39773;BME280;25451;51.960;6.250;2022-08-01T11:23:50;101730.06;;;22.99;63.18
39773;BME280;25451;51.960;6.250;2022-08-01T11:26:19;101746.25;;;23.07;62.94
39773;BME280;25451;51.960;6.250;2022-08-01T11:28:48;101745.13;;;23.08;62.84
39773;BME280;25451;51.960;6.250;2022-08-01T11:31:32;101747.63;;;23.09;62.78
39773;BME280;25451;51.960;6.250;2022-08-01T11:33:58;101752.13;;;23.11;62.81
39773;BME280;25451;51.960;6.250;2022-08-01T11:36:24;101750.97;;;23.12;62.61
39773;BME280;25451;51.960;6.250;2022-08-01T11:39:10;101751.81;;;23.12;62.47
39773;BME280;25451;51.960;6.250;2022-08-01T11:41:36;101758.00;;;23.14;62.38
39773;BME280;25451;51.960;6.250;2022-08-01T11:44:13;101759.66;;;23.15;62.53
39773;BME280;25451;51.960;6.250;2022-08-01T11:46:52;101753.72;;;23.17;62.43
39773;BME280;25451;51.960;6.250;2022-08-01T11:49:24;101767.50;;;23.18;62.23
39773;BME280;25451;51.960;6.250;2022-08-01T11:52:06;101766.13;;;23.16;62.00
39773;BME280;25451;51.960;6.250;2022-08-01T11:54:46;101766.97;;;23.16;62.18
39773;BME280;25451;51.960;6.250;2022-08-01T11:57:17;101766.38;;;23.19;62.27
39773;BME280;25451;51.960;6.250;2022-08-01T11:59:45;101767.97;;;23.25;62.20
39773;BME280;25451;51.960;6.250;2022-08-01T12:02:22;101761.69;;;23.28;61.87
39773;BME280;25451;51.960;6.250;2022-08-01T12:04:51;101767.56;;;23.32;61.71
39773;BME280;25451;51.960;6.250;2022-08-01T12:07:18;101757.75;;;23.29;61.55
39773;BME280;25451;51.960;6.250;2022-08-01T12:09:44;101753.63;;;23.40;61.44
39773;BME280;25451;51.960;6.250;2022-08-01T12:12:11;101754.47;;;23.41;61.43
39773;BME280;25451;51.960;6.250;2022-08-01T12:14:39;101770.38;;;23.50;61.73
39773;BME280;25451;51.960;6.250;2022-08-01T12:17:05;101764.41;;;23.52;61.60
39773;BME280;25451;51.960;6.250;2022-08-01T12:19:30;101766.53;;;23.60;61.58
39773;BME280;25451;51.960;6.250;2022-08-01T12:22:09;101766.13;;;23.66;61.55
39773;BME280;25451;51.960;6.250;2022-08-01T12:24:35;101765.19;;;23.71;61.69
39773;BME280;25451;51.960;6.250;2022-08-01T12:27:01;101763.75;;;23.73;61.96
39773;BME280;25451;51.960;6.250;2022-08-01T12:29:39;101761.47;;;23.75;61.84
39773;BME280;25451;51.960;6.250;2022-08-01T12:32:20;101767.31;;;23.79;61.49
39773;BME280;25451;51.960;6.250;2022-08-01T12:34:46;101762.06;;;23.72;61.78
39773;BME280;25451;51.960;6.250;2022-08-01T12:37:12;101763.53;;;23.70;61.65
39773;BME280;25451;51.960;6.250;2022-08-01T12:39:38;101769.19;;;23.70;61.99
39773;BME280;25451;51.960;6.250;2022-08-01T12:42:06;101767.41;;;23.74;62.02
39773;BME280;25451;51.960;6.250;2022-08-01T12:44:32;101768.56;;;23.73;62.25
39773;BME280;25451;51.960;6.250;2022-08-01T12:46:58;101770.75;;;23.76;62.25
39773;BME280;25451;51.960;6.250;2022-08-01T12:49:24;101774.41;;;23.76;62.20
39773;BME280;25451;51.960;6.250;2022-08-01T12:51:50;101774.91;;;23.78;62.55
39773;BME280;25451;51.960;6.250;2022-08-01T12:54:16;101776.63;;;23.79;62.57
39773;BME280;25451;51.960;6.250;2022-08-01T12:56:41;101773.41;;;23.86;62.38
39773;BME280;25451;51.960;6.250;2022-08-01T12:59:26;101758.78;;;23.84;62.51
39773;BME280;25451;51.960;6.250;2022-08-01T13:01:53;101767.25;;;23.98;62.39
39773;BME280;25451;51.960;6.250;2022-08-01T13:04:20;101763.19;;;24.04;62.65
39773;BME280;25451;51.960;6.250;2022-08-01T13:06:46;101765.94;;;24.09;62.70
39773;BME280;25451;51.960;6.250;2022-08-01T13:09:12;101758.28;;;24.09;62.38